sensor_id;sensor_type;location;lat;lon;timestamp;pressure;altitude;pressure_sealevel;temperature;humidity
70943;BME280;59154;51.970;5.650;2023-07-13T08:08:56;101400;;;25.74396;63.9
70943;BME280;59154;51.970;5.650;2023-07-13T08:16:06;101400;;;25.83043;63.9
70943;BME280;59154;51.970;5.650;2023-07-13T16:18:40;101600;;;27.14783;49.9
70943;BME280;59154;51.970;5.650;2023-07-13T19:03:40;101600;;;26.94946;52.8
70943;BME280;59154;51.970;5.650;2023-07-13T19:08:41;101600;;;26.67987;53.1
70943;BME280;59154;51.970;5.650;2023-07-13T19:13:35;101600;;;26.50693;53.4
70943;BME280;59154;51.970;5.650;2023-07-13T19:18:34;101600;;;26.21191;53.8
70943;BME280;59154;51.970;5.650;2023-07-13T19:25:03;101600;;;25.95759;54.7
70943;BME280;59154;51.970;5.650;2023-07-13T19:32:12;101600;;;25.24548;56.0
70943;BME280;59154;51.970;5.650;2023-07-13T19:35:44;101600;;;25.24548;56.0
70943;BME280;59154;51.970;5.650;2023-07-13T20:00:09;101600;;;24.68089;59.0
70943;BME280;59154;51.970;5.650;2023-07-13T20:05:08;101600;;;24.54864;58.6
70943;BME280;59154;51.970;5.650;2023-07-13T20:10:16;101600;;;24.47235;58.4
70943;BME280;59154;51.970;5.650;2023-07-13T20:15:03;101600;;;24.41131;59.1
70943;BME280;59154;51.970;5.650;2023-07-13T20:20:17;101600;;;24.3401;58.8
70943;BME280;59154;51.970;5.650;2023-07-13T20:30:05;101600;;;24.07561;59.3
70943;BME280;59154;51.970;5.650;2023-07-13T20:35:04;101600;;;23.99932;60.1
70943;BME280;59154;51.970;5.650;2023-07-13T20:40:08;101700;;;23.93319;60.5
70943;BME280;59154;51.970;5.650;2023-07-13T20:46:12;101700;;;23.83147;60.8
70943;BME280;59154;51.970;5.650;2023-07-13T20:50:15;101700;;;23.77043;60.6
70943;BME280;59154;51.970;5.650;2023-07-13T20:57:15;101700;;;23.73482;61.1
70943;BME280;59154;51.970;5.650;2023-07-13T21:05:13;101700;;;23.70939;60.9
70943;BME280;59154;51.970;5.650;2023-07-13T21:10:08;101700;;;23.67887;61.1
70943;BME280;59154;51.970;5.650;2023-07-13T21:15:06;101700;;;23.62801;61.5
70943;BME280;59154;51.970;5.650;2023-07-13T21:20:14;101700;;;23.59749;62.4
70943;BME280;59154;51.970;5.650;2023-07-13T21:35:04;101700;;;23.49068;60.9
70943;BME280;59154;51.970;5.650;2023-07-13T21:40:05;101700;;;23.45508;61.3
70943;BME280;59154;51.970;5.650;2023-07-13T21:47:15;101700;;;23.36861;61.1
70943;BME280;59154;51.970;5.650;2023-07-13T21:55:11;101700;;;23.27705;61.7
70943;BME280;59154;51.970;5.650;2023-07-13T22:05:11;101700;;;23.19059;62.3
70943;BME280;59154;51.970;5.650;2023-07-13T22:10:07;101700;;;23.12955;62.3
70943;BME280;59154;51.970;5.650;2023-07-13T22:15:03;101700;;;23.09903;62.6
70943;BME280;59154;51.970;5.650;2023-07-13T22:20:05;101700;;;23.038;62.7
70943;BME280;59154;51.970;5.650;2023-07-13T22:25:03;101700;;;22.96679;63.2
70943;BME280;59154;51.970;5.650;2023-07-13T22:30:04;101700;;;22.92101;63.3
70943;BME280;59154;51.970;5.650;2023-07-13T22:35:03;101700;;;22.91084;63.4
70943;BME280;59154;51.970;5.650;2023-07-13T22:40:10;101700;;;22.88541;63.5
70943;BME280;59154;51.970;5.650;2023-07-13T22:46:12;101700;;;22.83455;63.8
70943;BME280;59154;51.970;5.650;2023-07-13T22:50:17;101700;;;22.83455;63.7
70943;BME280;59154;51.970;5.650;2023-07-13T22:55:12;101700;;;22.79385;63.9
70943;BME280;59154;51.970;5.650;2023-07-13T23:00:19;101700;;;22.77351;63.9
70943;BME280;59154;51.970;5.650;2023-07-13T23:05:04;101600;;;22.77351;63.7
70943;BME280;59154;51.970;5.650;2023-07-13T23:10:13;101700;;;22.73791;63.7
70943;BME280;59154;51.970;5.650;2023-07-13T23:15:02;101700;;;22.72265;63.9
70943;BME280;59154;51.970;5.650;2023-07-13T23:20:13;101700;;;22.68704;63.8
70943;BME280;59154;51.970;5.650;2023-07-13T23:39:05;101600;;;22.58023;64.8
70943;BME280;59154;51.970;5.650;2023-07-13T23:40:11;101600;;;22.58023;64.8
70943;BME280;59154;51.970;5.650;2023-07-13T23:46:21;101600;;;22.53954;64.9
70943;BME280;59154;51.970;5.650;2023-07-13T23:50:10;101600;;;22.49376;65.0
